Time;durP1;ratioP1;P1;durP2;ratioP2;P2;SDS_P1;SDS_P2;PMS_P1;PMS_P2;Temp;Humidity;BMP_temperature;BMP_pressure;BME280_temperature;BME280_humidity;BME280_pressure;Samples;Min_cycle;Max_cycle;Signal;HPM_P1;HPM_P2
2023/03/11 00:00:20;;;;;;;3.13;1.13;;;4.40;99.90;;;;;;5072655;28;20075;-68
2023/03/11 00:02:47;;;;;;;2.33;1.27;;;4.40;99.90;;;;;;5072692;28;20024;-69
2023/03/11 00:05:20;;;;;;;1.70;1.17;;;4.50;99.90;;;;;;5072566;28;20489;-67
2023/03/11 00:07:45;;;;;;;2.10;1.33;;;4.50;99.90;;;;;;5073232;28;20088;-67
2023/03/11 00:10:26;;;;;;;1.90;1.10;;;4.50;99.90;;;;;;5072729;28;20543;-68
2023/03/11 00:12:52;;;;;;;1.80;1.00;;;4.50;99.90;;;;;;5072643;28;20024;-67
2023/03/11 00:15:17;;;;;;;1.60;1.10;;;4.40;99.90;;;;;;5089819;28;20157;-67
2023/03/11 00:17:43;;;;;;;3.00;1.30;;;4.40;99.90;;;;;;5091586;28;20036;-67
2023/03/11 00:20:19;;;;;;;1.60;1.15;;;4.40;99.90;;;;;;5091615;28;20074;-68
2023/03/11 00:22:45;;;;;;;2.80;1.48;;;4.40;99.90;;;;;;5091393;28;20032;-67
2023/03/11 00:25:12;;;;;;;3.45;1.50;;;4.30;99.90;;;;;;5093003;28;20024;-68
2023/03/11 00:27:37;;;;;;;3.15;1.13;;;4.30;99.90;;;;;;5093041;28;20032;-67
2023/03/11 00:30:04;;;;;;;3.23;1.30;;;4.20;99.90;;;;;;5092449;28;20027;-68
2023/03/11 00:32:30;;;;;;;4.22;1.40;;;4.20;99.90;;;;;;5092479;28;20047;-68
2023/03/11 00:34:55;;;;;;;5.50;1.60;;;4.10;99.90;;;;;;5093198;28;20476;-69
2023/03/11 00:37:21;;;;;;;3.07;1.40;;;4.00;99.90;;;;;;5093641;28;20085;-67
2023/03/11 00:39:46;;;;;;;2.60;1.37;;;4.00;99.90;;;;;;5094225;28;20032;-68
2023/03/11 00:42:12;;;;;;;2.10;1.40;;;4.00;99.90;;;;;;5093884;28;20097;-68
2023/03/11 00:44:37;;;;;;;4.13;1.30;;;4.00;99.90;;;;;;5080939;28;20031;-68
2023/03/11 00:47:03;;;;;;;2.93;1.30;;;4.00;99.90;;;;;;5072830;28;20036;-67
2023/03/11 00:49:29;;;;;;;2.30;1.43;;;4.00;99.90;;;;;;5072862;28;20031;-67
2023/03/11 00:51:54;;;;;;;2.27;1.30;;;3.90;99.90;;;;;;5072762;28;20472;-67
2023/03/11 00:54:20;;;;;;;4.87;1.50;;;3.90;99.90;;;;;;5072340;28;20459;-68
2023/03/11 00:56:45;;;;;;;2.23;1.17;;;3.90;99.90;;;;;;5071236;28;20029;-67
2023/03/11 00:59:11;;;;;;;2.13;1.13;;;3.90;99.90;;;;;;5072368;28;20046;-68
2023/03/11 01:01:36;;;;;;;2.50;1.00;;;3.90;99.90;;;;;;5072261;28;20029;-67
2023/03/11 01:04:02;;;;;;;2.10;1.00;;;3.80;99.90;;;;;;5072244;28;20370;-67
2023/03/11 01:06:27;;;;;;;7.43;1.17;;;3.90;99.90;;;;;;5072353;28;20456;-67
2023/03/11 01:08:53;;;;;;;1.33;1.00;;;3.90;99.90;;;;;;5071284;28;20038;-68
2023/03/11 01:11:18;;;;;;;1.13;0.70;;;3.80;99.90;;;;;;5072593;28;20029;-68
2023/03/11 01:13:44;;;;;;;1.77;0.57;;;3.80;99.90;;;;;;5078329;28;20036;-68
2023/03/11 01:16:09;;;;;;;5.83;0.90;;;3.80;99.90;;;;;;5094918;28;20028;-68
2023/03/11 01:18:35;;;;;;;3.10;1.00;;;3.80;99.90;;;;;;5097128;28;20422;-67
2023/03/11 01:21:01;;;;;;;2.08;0.80;;;3.80;99.90;;;;;;5096090;28;20032;-67
2023/03/11 01:23:26;;;;;;;2.23;0.83;;;3.80;99.90;;;;;;5095879;28;20058;-68
2023/03/11 01:25:52;;;;;;;3.33;0.73;;;3.70;99.90;;;;;;5096020;28;20431;-67
2023/03/11 01:28:17;;;;;;;1.63;0.80;;;3.70;99.90;;;;;;5095732;28;20039;-68
2023/03/11 01:30:43;;;;;;;4.37;1.20;;;3.60;99.90;;;;;;5095407;28;20472;-68
2023/03/11 01:33:15;;;;;;;4.15;0.82;;;3.60;99.90;;;;;;5094462;28;20031;-67
2023/03/11 01:35:42;;;;;;;1.40;0.70;;;3.60;99.90;;;;;;5095730;28;20112;-67
2023/03/11 01:38:08;;;;;;;1.90;0.52;;;3.50;99.90;;;;;;5095881;28;20397;-67
2023/03/11 01:40:36;;;;;;;2.05;0.90;;;3.50;99.90;;;;;;5094501;28;20055;-68
2023/03/11 01:43:03;;;;;;;4.35;0.93;;;3.60;99.90;;;;;;5094649;28;20028;-67
2023/03/11 01:45:50;;;;;;;2.35;1.25;;;3.50;99.90;;;;;;5075183;28;20032;-68
2023/03/11 01:48:15;;;;;;;2.00;0.88;;;3.40;99.90;;;;;;5074240;28;20024;-68
2023/03/11 01:50:48;;;;;;;2.23;0.60;;;3.40;99.90;;;;;;5075124;28;20071;-68
2023/03/11 01:53:15;;;;;;;2.92;1.23;;;3.30;99.90;;;;;;5075061;28;20067;-67
2023/03/11 01:55:42;;;;;;;3.75;0.80;;;3.40;99.90;;;;;;5074905;28;20047;-67
2023/03/11 01:58:13;;;;;;;5.47;0.80;;;3.40;99.90;;;;;;5074998;28;20055;-68
2023/03/11 02:00:40;;;;;;;4.00;0.80;;;3.40;99.90;;;;;;5073213;28;20021;-68
2023/03/11 02:03:13;;;;;;;2.15;0.85;;;3.30;99.90;;;;;;5074874;28;20082;-68
2023/03/11 02:05:39;;;;;;;2.10;0.77;;;3.30;99.90;;;;;;5076568;28;20039;-68
2023/03/11 02:08:05;;;;;;;3.90;0.85;;;3.40;99.90;;;;;;5076478;28;20063;-67
2023/03/11 02:10:31;;;;;;;2.35;0.60;;;3.40;99.90;;;;;;5075671;28;20485;-67
2023/03/11 02:12:57;;;;;;;4.03;0.70;;;3.30;99.90;;;;;;5074368;28;20054;-67
2023/03/11 02:15:24;;;;;;;5.32;0.88;;;3.30;99.90;;;;;;5094020;28;20024;-68
2023/03/11 02:17:51;;;;;;;3.30;1.23;;;3.20;99.90;;;;;;5094832;28;20034;-68
2023/03/11 02:20:25;;;;;;;5.05;1.00;;;3.30;99.90;;;;;;5094880;28;20020;-67
2023/03/11 02:22:55;;;;;;;2.75;0.90;;;3.30;99.90;;;;;;5093293;28;20082;-68
2023/03/11 02:25:30;;;;;;;4.95;1.70;;;3.20;99.90;;;;;;5093417;28;20056;-67
2023/03/11 02:27:57;;;;;;;1.92;1.33;;;3.30;99.90;;;;;;5094438;28;20016;-67
2023/03/11 02:30:26;;;;;;;4.10;1.25;;;3.30;99.90;;;;;;5094377;28;20031;-68
2023/03/11 02:32:53;;;;;;;3.70;0.70;;;3.30;99.90;;;;;;5094188;28;20079;-67
2023/03/11 02:35:19;;;;;;;3.22;0.75;;;3.20;99.90;;;;;;5094330;28;20024;-68
2023/03/11 02:37:46;;;;;;;4.72;0.98;;;3.20;99.90;;;;;;5094644;28;20021;-68
2023/03/11 02:40:26;;;;;;;1.90;0.50;;;3.10;99.90;;;;;;5093024;28;20032;-67
2023/03/11 02:43:00;;;;;;;6.70;0.82;;;3.10;99.90;;;;;;5092801;28;20437;-68
2023/03/11 02:45:28;;;;;;;5.00;0.88;;;3.10;99.90;;;;;;5094043;28;20485;-68
2023/03/11 02:47:56;;;;;;;3.58;0.70;;;3.00;99.90;;;;;;5093175;28;20020;-67
2023/03/11 02:50:22;;;;;;;2.83;0.75;;;3.10;99.90;;;;;;5094391;28;20031;-67
2023/03/11 02:52:48;;;;;;;;;;;3.10;99.90;;;;;;5093104;28;20388;-68
2023/03/11 02:55:16;;;;;;;2.88;0.90;;;3.10;99.90;;;;;;5094041;28;19904;-68
2023/03/11 02:57:42;;;;;;;2.67;0.57;;;3.00;99.90;;;;;;5092778;28;20020;-68
2023/03/11 03:00:13;;;;;;;2.97;0.90;;;3.10;99.90;;;;;;5092510;28;20035;-67
2023/03/11 03:02:39;;;;;;;3.47;1.35;;;3.10;99.90;;;;;;5094042;28;20045;-67
2023/03/11 03:05:05;;;;;;;2.33;0.80;;;3.10;99.90;;;;;;5093582;28;20067;-68
2023/03/11 03:07:31;;;;;;;4.65;0.88;;;3.00;99.90;;;;;;5094568;28;20032;-68
2023/03/11 03:09:56;;;;;;;2.37;0.77;;;3.00;99.90;;;;;;5094323;28;20495;-68
2023/03/11 03:12:22;;;;;;;4.37;0.90;;;3.00;99.90;;;;;;5093572;28;20030;-68
2023/03/11 03:14:48;;;;;;;4.20;0.90;;;2.80;99.90;;;;;;5093343;28;20016;-68
2023/03/11 03:17:13;;;;;;;3.70;0.93;;;2.80;99.90;;;;;;5093518;28;20024;-67
2023/03/11 03:19:39;;;;;;;2.33;0.87;;;2.80;99.90;;;;;;5094143;28;20092;-68
2023/03/11 03:22:04;;;;;;;4.50;2.10;;;2.70;99.90;;;;;;5092661;28;20049;-68
2023/03/11 03:24:30;;;;;;;1.80;1.23;;;2.70;99.90;;;;;;5094167;28;20024;-68
2023/03/11 03:26:56;;;;;;;6.07;1.00;;;2.80;99.90;;;;;;5093944;28;20327;-68
2023/03/11 03:29:21;;;;;;;5.03;1.02;;;2.80;99.90;;;;;;5093631;28;20032;-68
2023/03/11 03:31:47;;;;;;;7.30;1.17;;;2.70;99.90;;;;;;5092058;28;20035;-68
2023/03/11 03:34:13;;;;;;;3.45;1.00;;;2.70;99.90;;;;;;5092169;28;20101;-68
2023/03/11 03:36:38;;;;;;;5.77;1.23;;;2.70;99.90;;;;;;5093727;28;20036;-66
2023/03/11 03:39:05;;;;;;;1.27;0.90;;;2.80;99.90;;;;;;5091721;28;20177;-67
2023/03/11 03:41:30;;;;;;;3.10;1.08;;;2.90;99.90;;;;;;5093545;28;20502;-68
2023/03/11 03:43:57;;;;;;;4.17;1.17;;;3.00;99.90;;;;;;5093313;28;20028;-67
2023/03/11 03:46:22;;;;;;;2.88;0.80;;;2.90;99.90;;;;;;5093105;28;20384;-68
2023/03/11 03:48:48;;;;;;;2.03;1.20;;;3.00;99.90;;;;;;5093480;28;20103;-68
2023/03/11 03:51:14;;;;;;;5.10;1.20;;;3.00;99.90;;;;;;5093005;28;20135;-68
2023/03/11 03:53:40;;;;;;;3.40;1.05;;;2.90;99.90;;;;;;5091907;28;20067;-68
2023/03/11 03:56:11;;;;;;;5.45;1.35;;;3.00;99.90;;;;;;5091900;28;20107;-68
2023/03/11 03:58:37;;;;;;;5.18;1.10;;;3.00;99.90;;;;;;5093592;28;20076;-68
2023/03/11 04:01:04;;;;;;;3.85;1.17;;;3.00;99.90;;;;;;5093004;28;20024;-67
2023/03/11 04:03:29;;;;;;;9.18;1.52;;;3.00;99.90;;;;;;5091709;28;20032;-67
2023/03/11 04:06:18;;;;;;;3.80;1.17;;;2.90;99.90;;;;;;5093036;28;20024;-67
2023/03/11 04:08:44;;;;;;;6.93;1.52;;;2.90;99.90;;;;;;5093311;28;20615;-68
2023/03/11 04:11:10;;;;;;;2.47;1.00;;;2.90;99.90;;;;;;5091547;28;20031;-66
2023/03/11 04:13:35;;;;;;;5.88;1.08;;;2.80;99.90;;;;;;5087442;28;20025;-67
2023/03/11 04:16:06;;;;;;;3.57;1.20;;;2.70;99.90;;;;;;5073161;28;20115;-67
2023/03/11 04:18:32;;;;;;;7.80;1.33;;;2.60;99.90;;;;;;5073031;28;20028;-67
2023/03/11 04:20:58;;;;;;;5.10;1.30;;;2.60;99.90;;;;;;5072453;28;20036;-67
2023/03/11 04:23:23;;;;;;;2.37;1.10;;;2.60;99.90;;;;;;5072453;28;20032;-67
2023/03/11 04:25:49;;;;;;;4.43;1.27;;;2.60;99.90;;;;;;5072634;28;20380;-68
2023/03/11 04:28:14;;;;;;;1.60;1.00;;;2.60;99.90;;;;;;5072706;28;20025;-67
2023/03/11 04:30:41;;;;;;;4.07;1.60;;;2.60;99.90;;;;;;5072610;28;20468;-68
2023/03/11 04:33:06;;;;;;;6.18;1.20;;;2.60;99.90;;;;;;5072766;28;20620;-68
2023/03/11 04:35:32;;;;;;;3.70;0.93;;;2.60;99.90;;;;;;5072452;28;20032;-68
2023/03/11 04:37:59;;;;;;;3.70;1.07;;;2.50;99.90;;;;;;5072427;28;20496;-67
2023/03/11 04:40:25;;;;;;;3.30;1.02;;;2.60;99.90;;;;;;5072442;28;20078;-67
2023/03/11 04:42:52;;;;;;;2.10;0.80;;;2.50;99.90;;;;;;5072049;28;20033;-66
2023/03/11 04:45:18;;;;;;;4.30;1.20;;;2.60;99.90;;;;;;5072203;28;20037;-67
2023/03/11 04:47:47;;;;;;;5.32;1.08;;;2.60;99.90;;;;;;5070967;28;20039;-67
2023/03/11 04:50:13;;;;;;;2.60;1.10;;;2.50;99.90;;;;;;5072652;28;20111;-68
2023/03/11 04:52:38;;;;;;;5.53;1.20;;;2.50;99.90;;;;;;5076065;28;20158;-68
2023/03/11 04:55:04;;;;;;;4.70;1.00;;;2.50;99.90;;;;;;5076124;28;20728;-68
2023/03/11 04:57:30;;;;;;;4.68;1.08;;;2.60;99.90;;;;;;5076250;28;20024;-68
2023/03/11 04:59:56;;;;;;;6.70;1.27;;;2.60;99.90;;;;;;5076657;28;20044;-67
2023/03/11 05:02:21;;;;;;;3.10;1.10;;;2.70;99.90;;;;;;5075577;28;20028;-67
2023/03/11 05:04:47;;;;;;;4.63;1.03;;;2.80;99.90;;;;;;5075629;28;20056;-67
2023/03/11 05:07:12;;;;;;;4.90;1.10;;;2.60;99.90;;;;;;5076004;28;20132;-68
2023/03/11 05:09:38;;;;;;;6.77;1.30;;;2.50;99.90;;;;;;5076184;28;20024;-67
2023/03/11 05:12:04;;;;;;;5.27;1.20;;;2.30;99.90;;;;;;5074340;28;20017;-68
2023/03/11 05:14:29;;;;;;;4.60;1.20;;;2.40;99.90;;;;;;5076085;28;20024;-67
2023/03/11 05:16:55;;;;;;;5.63;1.10;;;2.30;99.90;;;;;;5075882;28;20032;-67
2023/03/11 05:19:29;;;;;;;3.87;1.20;;;2.30;99.90;;;;;;5075950;28;20056;-67
2023/03/11 05:21:55;;;;;;;5.78;1.35;;;2.40;99.90;;;;;;5074021;28;20062;-67
2023/03/11 05:24:21;;;;;;;6.20;1.20;;;2.40;99.90;;;;;;5075245;28;20040;-67
2023/03/11 05:26:47;;;;;;;2.30;0.95;;;2.30;99.90;;;;;;5075696;28;20029;-66
2023/03/11 05:29:13;;;;;;;4.13;1.15;;;2.20;99.90;;;;;;5075557;28;20088;-67
2023/03/11 05:31:39;;;;;;;9.52;1.42;;;2.00;99.90;;;;;;5075339;28;20032;-67
2023/03/11 05:34:05;;;;;;;3.88;1.45;;;2.20;99.90;;;;;;5075524;28;20492;-68
2023/03/11 05:36:30;;;;;;;3.63;1.00;;;2.10;99.90;;;;;;5076145;28;20047;-68
2023/03/11 05:38:56;;;;;;;4.63;1.07;;;2.20;99.90;;;;;;5077230;28;20032;-69
2023/03/11 05:41:21;;;;;;;3.33;1.20;;;2.20;99.90;;;;;;5076416;28;20025;-68
2023/03/11 05:43:47;;;;;;;3.60;1.10;;;2.30;99.90;;;;;;5075934;28;20050;-68
2023/03/11 05:46:12;;;;;;;5.23;1.40;;;2.20;99.90;;;;;;5074998;28;20462;-67
2023/03/11 05:48:38;;;;;;;2.90;1.03;;;2.20;99.90;;;;;;5073750;28;20032;-67
2023/03/11 05:51:08;;;;;;;3.07;1.17;;;2.10;99.90;;;;;;5074945;28;20032;-67
2023/03/11 05:53:34;;;;;;;3.10;1.20;;;2.10;99.90;;;;;;5075155;28;20420;-68
2023/03/11 05:56:00;;;;;;;2.77;1.20;;;2.10;99.90;;;;;;5073860;28;20020;-68
2023/03/11 05:58:30;;;;;;;2.17;0.85;;;2.00;99.90;;;;;;5075065;28;20258;-67
2023/03/11 06:00:55;;;;;;;2.35;0.90;;;2.00;99.90;;;;;;5074599;28;20028;-67
2023/03/11 06:03:21;;;;;;;2.40;1.10;;;1.90;99.90;;;;;;5073439;28;20106;-67
2023/03/11 06:05:48;;;;;;;6.07;1.30;;;2.00;99.90;;;;;;5075254;28;20060;-67
2023/03/11 06:08:15;;;;;;;3.10;1.00;;;2.00;99.90;;;;;;5074732;28;20055;-67
2023/03/11 06:10:41;;;;;;;;;;;2.00;99.90;;;;;;5073731;28;20115;-68
2023/03/11 06:13:06;;;;;;;2.90;1.33;;;2.10;99.90;;;;;;5075084;28;19999;-68
2023/03/11 06:15:36;;;;;;;8.27;1.40;;;2.10;99.90;;;;;;5074936;28;20020;-68
2023/03/11 06:18:02;;;;;;;5.38;1.35;;;2.10;99.90;;;;;;5073490;28;20024;-69
2023/03/11 06:20:28;;;;;;;7.03;2.17;;;2.10;99.90;;;;;;5074530;28;20158;-66
2023/03/11 06:22:54;;;;;;;5.57;1.40;;;2.10;99.90;;;;;;5074387;28;20107;-67
2023/03/11 06:25:19;;;;;;;5.75;1.20;;;2.10;99.90;;;;;;5073046;28;20029;-67
2023/03/11 06:27:50;;;;;;;5.10;1.33;;;2.20;99.90;;;;;;5074160;28;20032;-67
2023/03/11 06:30:16;;;;;;;3.28;1.20;;;2.20;99.90;;;;;;5074031;28;20407;-66
2023/03/11 06:32:48;;;;;;;6.18;1.25;;;2.20;99.90;;;;;;5072705;28;20393;-67
2023/03/11 06:35:13;;;;;;;6.75;1.85;;;2.30;99.90;;;;;;5073006;28;20024;-68
2023/03/11 06:37:39;;;;;;;6.50;1.37;;;2.20;99.90;;;;;;5074711;28;20099;-67
2023/03/11 06:40:07;;;;;;;6.57;1.60;;;2.20;99.90;;;;;;5074184;28;20051;-67
2023/03/11 06:42:33;;;;;;;7.07;1.50;;;2.30;99.90;;;;;;5074013;28;20028;-68
2023/03/11 06:44:59;;;;;;;4.95;1.92;;;2.30;99.90;;;;;;5088675;28;20566;-67
2023/03/11 06:47:24;;;;;;;5.27;1.47;;;2.30;99.90;;;;;;5094600;28;20028;-67
2023/03/11 06:49:50;;;;;;;5.57;1.50;;;2.30;99.90;;;;;;5094066;28;20038;-67
2023/03/11 06:52:16;;;;;;;6.82;3.08;;;2.30;99.90;;;;;;5092518;28;20114;-68
2023/03/11 06:54:42;;;;;;;3.13;1.07;;;2.20;99.90;;;;;;5092847;28;20052;-67
2023/03/11 06:57:08;;;;;;;5.03;1.25;;;2.40;99.90;;;;;;5094193;28;20078;-67
2023/03/11 06:59:34;;;;;;;7.10;1.70;;;2.40;99.90;;;;;;5094449;28;20412;-69
2023/03/11 07:02:01;;;;;;;5.65;1.40;;;2.40;99.90;;;;;;5094439;28;20031;-68
2023/03/11 07:04:26;;;;;;;;;;;2.50;99.90;;;;;;5094289;28;20039;-68
2023/03/11 07:06:52;;;;;;;4.97;1.58;;;2.50;99.90;;;;;;5093959;28;19904;-68
2023/03/11 07:09:18;;;;;;;4.87;1.43;;;2.50;99.90;;;;;;5078996;28;20052;-68
2023/03/11 07:11:43;;;;;;;6.47;1.40;;;2.40;99.90;;;;;;5073308;28;20508;-67
2023/03/11 07:14:09;;;;;;;7.10;1.70;;;2.40;99.90;;;;;;5074509;28;20062;-67
2023/03/11 07:16:37;;;;;;;4.77;1.77;;;2.50;99.90;;;;;;5093790;28;20024;-67
2023/03/11 07:19:02;;;;;;;4.93;1.75;;;2.60;99.90;;;;;;5093510;28;20024;-68
2023/03/11 07:21:30;;;;;;;8.13;1.83;;;2.60;99.90;;;;;;5093604;28;20426;-69
2023/03/11 07:23:58;;;;;;;3.50;1.35;;;2.60;99.90;;;;;;5080261;28;20331;-69
2023/03/11 07:26:25;;;;;;;4.13;1.73;;;2.70;99.90;;;;;;5072187;28;20027;-68
2023/03/11 07:28:52;;;;;;;4.80;1.33;;;2.70;99.90;;;;;;5072497;28;20487;-67
2023/03/11 07:31:20;;;;;;;5.03;1.27;;;2.80;99.90;;;;;;5090170;28;20028;-68
2023/03/11 07:33:46;;;;;;;8.32;1.45;;;2.70;99.90;;;;;;5093690;28;20381;-68
2023/03/11 07:36:18;;;;;;;4.82;1.55;;;2.80;99.90;;;;;;5093825;28;20099;-68
2023/03/11 07:38:44;;;;;;;7.32;2.00;;;2.70;99.90;;;;;;5093361;28;20024;-68
2023/03/11 07:41:11;;;;;;;5.55;1.65;;;2.90;99.90;;;;;;5093709;28;20030;-68
2023/03/11 07:43:38;;;;;;;5.40;1.58;;;3.00;99.90;;;;;;5090903;28;20035;-68
2023/03/11 07:46:08;;;;;;;6.97;1.83;;;3.00;99.90;;;;;;5076027;28;20047;-71
2023/03/11 07:48:36;;;;;;;3.83;0.90;;;3.00;99.90;;;;;;5100979;28;20095;-70
2023/03/11 07:51:04;;;;;;;6.55;1.38;;;3.10;99.90;;;;;;5098031;28;20063;-67
2023/03/11 07:53:30;;;;;;;3.17;1.25;;;3.20;99.90;;;;;;5093458;28;20460;-67
2023/03/11 07:55:57;;;;;;;7.65;1.77;;;3.20;99.90;;;;;;5095677;28;20016;-68
2023/03/11 07:58:23;;;;;;;5.20;1.60;;;3.20;99.90;;;;;;5092394;28;20063;-67
2023/03/11 08:00:49;;;;;;;4.53;1.25;;;3.20;99.90;;;;;;5091594;28;20028;-69
2023/03/11 08:03:15;;;;;;;6.83;1.57;;;3.30;99.90;;;;;;5093225;28;20047;-69
2023/03/11 08:05:42;;;;;;;6.18;1.40;;;3.40;99.90;;;;;;5093721;28;20173;-69
2023/03/11 08:08:08;;;;;;;7.03;1.30;;;3.40;99.90;;;;;;5095498;28;20081;-68
2023/03/11 08:10:36;;;;;;;7.57;1.73;;;3.30;99.90;;;;;;5095340;28;20456;-68
2023/03/11 08:13:02;;;;;;;9.10;1.95;;;3.50;99.90;;;;;;5093947;28;20105;-68
2023/03/11 08:15:28;;;;;;;6.67;1.77;;;3.50;99.90;;;;;;5074952;28;20033;-67
2023/03/11 08:17:53;;;;;;;8.37;1.93;;;3.60;99.90;;;;;;5071727;28;20025;-69
2023/03/11 08:20:19;;;;;;;6.03;1.50;;;3.60;99.90;;;;;;5073426;28;20024;-70
2023/03/11 08:22:45;;;;;;;8.43;1.80;;;3.60;99.90;;;;;;5073528;28;20048;-66
2023/03/11 08:25:10;;;;;;;5.43;1.40;;;3.60;99.90;;;;;;5075340;28;20025;-67
2023/03/11 08:27:36;;;;;;;4.10;1.60;;;3.70;99.90;;;;;;5077410;28;20434;-67
2023/03/11 08:30:02;;;;;;;3.13;1.50;;;3.70;99.90;;;;;;5077546;28;20428;-68
2023/03/11 08:32:30;;;;;;;7.30;1.50;;;3.70;99.90;;;;;;5076539;28;20020;-67
2023/03/11 08:34:56;;;;;;;8.07;1.45;;;3.60;99.90;;;;;;5075794;28;20036;-70
2023/03/11 08:37:22;;;;;;;6.95;1.75;;;3.70;99.90;;;;;;5077794;28;20028;-72
2023/03/11 08:39:47;;;;;;;9.40;1.27;;;3.70;99.90;;;;;;5074088;28;20086;-72
2023/03/11 08:42:15;;;;;;;7.17;1.60;;;3.80;99.90;;;;;;5074600;28;20410;-72
2023/03/11 08:44:40;;;;;;;3.03;1.50;;;4.00;99.90;;;;;;5084355;28;20584;-66
2023/03/11 08:47:06;;;;;;;5.23;1.53;;;4.20;99.90;;;;;;5076126;28;20032;-68
2023/03/11 08:49:31;;;;;;;6.30;1.40;;;4.20;99.90;;;;;;5076479;28;20040;-67
2023/03/11 08:51:57;;;;;;;9.03;1.83;;;4.40;99.90;;;;;;5076588;28;20059;-67
2023/03/11 08:54:22;;;;;;;4.30;1.20;;;4.50;99.90;;;;;;5074890;28;20027;-67
2023/03/11 08:56:48;;;;;;;5.33;1.43;;;4.60;99.90;;;;;;5076070;28;20034;-66
2023/03/11 08:59:13;;;;;;;11.80;2.10;;;4.60;99.90;;;;;;5075915;28;20448;-67
2023/03/11 09:01:41;;;;;;;3.93;1.07;;;4.50;99.90;;;;;;5076003;28;20393;-67
2023/03/11 09:04:07;;;;;;;4.53;1.00;;;4.20;99.90;;;;;;5076192;28;20044;-69
2023/03/11 09:06:32;;;;;;;8.63;1.33;;;4.00;99.90;;;;;;5083849;23;20048;-66
2023/03/11 09:08:58;;;;;;;11.85;1.38;;;3.90;99.90;;;;;;5055192;28;20032;-65
2023/03/11 09:11:24;;;;;;;10.38;1.50;;;4.00;99.90;;;;;;5056194;28;20067;-65
2023/03/11 09:13:50;;;;;;;6.13;1.25;;;4.30;99.90;;;;;;5055566;28;20029;-70
2023/03/11 09:16:19;;;;;;;10.10;1.30;;;6.30;99.90;;;;;;5064465;28;20049;-69
2023/03/11 09:18:45;;;;;;;9.07;1.17;;;9.20;97.50;;;;;;5074061;28;20401;-69
2023/03/11 09:21:11;;;;;;;4.22;1.23;;;11.40;92.20;;;;;;5073256;28;20028;-70
2023/03/11 09:23:37;;;;;;;3.80;1.10;;;13.70;86.80;;;;;;5069266;28;20078;-68
2023/03/11 09:26:03;;;;;;;4.72;1.27;;;16.10;77.40;;;;;;5071000;28;20033;-68
2023/03/11 09:28:28;;;;;;;5.50;1.48;;;18.00;69.80;;;;;;5074601;28;20120;-69
2023/03/11 09:30:54;;;;;;;4.70;0.97;;;18.50;64.00;;;;;;5075160;28;20028;-70
2023/03/11 09:33:20;;;;;;;6.38;1.30;;;17.90;62.80;;;;;;5076061;28;20396;-69
2023/03/11 09:35:45;;;;;;;8.27;1.37;;;16.30;63.90;;;;;;5075371;28;20020;-70
2023/03/11 09:38:11;;;;;;;5.25;1.48;;;15.00;66.90;;;;;;5075349;28;20031;-69
2023/03/11 09:40:43;;;;;;;4.43;1.20;;;13.60;68.30;;;;;;5078192;28;20033;-68
2023/03/11 09:43:26;;;;;;;5.07;1.48;;;13.70;70.00;;;;;;5072292;28;20028;-71
2023/03/11 09:46:02;;;;;;;4.97;1.60;;;13.80;68.40;;;;;;5055799;28;20112;-73
2023/03/11 09:49:02;;;;;;;6.15;1.60;;;12.60;69.80;;;;;;5055750;28;20028;-73
2023/03/11 09:51:34;;;;;;;7.88;1.25;;;12.30;72.30;;;;;;5055761;28;20033;-73
2023/03/11 09:54:08;;;;;;;5.63;1.45;;;13.20;69.30;;;;;;5054990;28;20104;-71
2023/03/11 09:56:35;;;;;;;6.47;1.77;;;15.00;67.30;;;;;;5056420;28;20439;-71
2023/03/11 09:59:06;;;;;;;4.18;1.30;;;15.80;64.30;;;;;;5055848;28;20413;-71
2023/03/11 10:01:43;;;;;;;6.50;1.25;;;16.50;61.40;;;;;;5055708;28;20028;-72
2023/03/11 10:04:34;;;;;;;4.97;1.20;;;16.20;63.20;;;;;;5055858;28;20064;-71
2023/03/11 10:07:04;;;;;;;4.60;1.27;;;18.20;61.30;;;;;;5040383;28;20127;-71
2023/03/11 10:09:45;;;;;;;10.63;2.22;;;17.80;59.30;;;;;;5054335;28;20021;-71
2023/03/11 10:12:35;;;;;;;4.95;1.20;;;15.80;62.70;;;;;;5054657;28;20033;-72
2023/03/11 10:15:18;;;;;;;5.95;1.45;;;13.50;65.70;;;;;;5069668;28;20473;-71
2023/03/11 10:17:50;;;;;;;7.95;1.10;;;11.00;70.40;;;;;;5074951;28;20440;-71
2023/03/11 10:20:21;;;;;;;5.07;1.17;;;10.30;73.50;;;;;;5064452;28;20048;-71
2023/03/11 10:23:11;;;;;;;8.02;1.85;;;9.80;73.50;;;;;;5068691;28;20025;-72
2023/03/11 10:25:58;;;;;;;5.85;1.23;;;11.10;74.20;;;;;;5054360;28;20040;-71
2023/03/11 10:28:52;;;;;;;6.00;1.50;;;14.20;67.70;;;;;;5072361;28;20060;-71
2023/03/11 10:31:27;;;;;;;3.78;0.93;;;16.60;62.60;;;;;;5072591;28;20029;-71
2023/03/11 10:34:20;;;;;;;6.05;1.10;;;15.60;61.30;;;;;;5083020;28;20098;-71
2023/03/11 10:36:46;;;;;;;6.80;1.10;;;14.80;62.70;;;;;;5059233;28;20033;-71
2023/03/11 10:39:11;;;;;;;5.07;1.27;;;15.10;63.00;;;;;;5055161;28;20135;-71
2023/03/11 10:41:49;;;;;;;6.25;1.20;;;16.30;60.50;;;;;;5055119;28;20025;-70
2023/03/11 10:44:38;;;;;;;5.60;0.93;;;18.60;56.90;;;;;;5062478;28;20531;-71
2023/03/11 10:47:05;;;;;;;3.70;1.10;;;18.70;55.70;;;;;;5073437;28;20017;-66
2023/03/11 10:49:31;;;;;;;5.68;1.38;;;20.60;52.40;;;;;;5073731;28;20020;-66
2023/03/11 10:51:57;;;;;;;2.97;0.93;;;21.30;51.10;;;;;;5073392;28;20023;-71
2023/03/11 10:54:45;;;;;;;5.70;1.42;;;22.50;49.60;;;;;;5073902;28;20024;-70
2023/03/11 10:57:24;;;;;;;4.60;1.15;;;23.70;48.10;;;;;;5073660;28;20024;-70
2023/03/11 10:59:55;;;;;;;9.45;1.35;;;22.20;47.30;;;;;;5074736;28;20021;-70
2023/03/11 11:02:39;;;;;;;4.15;1.35;;;22.30;47.10;;;;;;5073855;28;20024;-70
2023/03/11 11:05:17;;;;;;;3.38;1.10;;;23.00;47.10;;;;;;5075151;28;20051;-67
2023/03/11 11:07:47;;;;;;;3.22;1.08;;;23.50;45.60;;;;;;5074610;28;20036;-63
2023/03/11 11:10:15;;;;;;;5.50;1.13;;;21.30;47.10;;;;;;5074426;28;20052;-63
2023/03/11 11:13:20;;;;;;;4.72;0.90;;;20.60;47.00;;;;;;5072854;28;20346;-62
2023/03/11 11:15:57;;;;;;;2.75;0.80;;;16.10;49.70;;;;;;5072108;28;20028;-63
2023/03/11 11:18:31;;;;;;;6.25;1.55;;;12.40;55.20;;;;;;5075059;28;20052;-63
2023/03/11 11:21:03;;;;;;;6.38;0.85;;;10.80;58.60;;;;;;5090457;28;20396;-63
2023/03/11 11:24:02;;;;;;;5.75;1.10;;;10.00;61.30;;;;;;5075480;28;20021;-66
2023/03/11 11:26:31;;;;;;;4.30;0.85;;;9.20;63.40;;;;;;5055270;28;20098;-68
2023/03/11 11:29:09;;;;;;;3.00;0.70;;;9.00;63.10;;;;;;5088348;28;20070;-71
2023/03/11 11:31:45;;;;;;;4.20;0.90;;;8.80;65.00;;;;;;5072156;28;20032;-70
2023/03/11 11:34:25;;;;;;;2.30;0.70;;;8.10;64.30;;;;;;5072049;28;20025;-70
2023/03/11 11:36:51;;;;;;;4.45;1.20;;;8.40;65.30;;;;;;5072955;28;20082;-67
2023/03/11 11:39:19;;;;;;;3.00;0.88;;;8.70;65.40;;;;;;5074615;28;20350;-66
2023/03/11 11:41:47;;;;;;;5.13;1.00;;;8.70;65.20;;;;;;5089916;28;20062;-65
2023/03/11 11:44:18;;;;;;;8.40;1.20;;;8.50;66.10;;;;;;5089789;28;20025;-66
2023/03/11 11:46:50;;;;;;;4.47;1.20;;;8.80;66.70;;;;;;5089504;28;20037;-70
2023/03/11 11:49:18;;;;;;;6.78;1.10;;;8.90;64.40;;;;;;5068266;28;20028;-68
2023/03/11 11:51:58;;;;;;;5.03;0.85;;;8.80;65.10;;;;;;5088472;28;20028;-66
2023/03/11 11:54:37;;;;;;;5.63;1.13;;;8.40;66.50;;;;;;5073704;28;20082;-66
2023/03/11 11:57:11;;;;;;;3.17;1.00;;;8.40;67.70;;;;;;5074024;28;20024;-68
2023/03/11 11:59:37;;;;;;;2.63;0.90;;;8.50;67.20;;;;;;5073815;28;20032;-68
2023/03/11 12:02:28;;;;;;;5.97;1.38;;;8.40;67.20;;;;;;5073261;28;20017;-67
2023/03/11 12:05:11;;;;;;;4.38;1.13;;;8.30;67.40;;;;;;5074157;28;20016;-67
2023/03/11 12:07:58;;;;;;;4.15;0.93;;;8.30;67.80;;;;;;5072335;28;20044;-67
2023/03/11 12:10:43;;;;;;;3.28;1.05;;;8.20;68.40;;;;;;5072702;28;20016;-66
2023/03/11 12:13:15;;;;;;;2.58;1.00;;;8.20;68.10;;;;;;5072240;28;20020;-66
2023/03/11 12:15:47;;;;;;;4.10;0.85;;;8.30;67.60;;;;;;5073173;28;20104;-65
2023/03/11 12:18:27;;;;;;;5.93;1.10;;;8.50;67.90;;;;;;5074590;28;20033;-67
2023/03/11 12:20:56;;;;;;;7.80;1.42;;;8.80;67.10;;;;;;5073394;28;20024;-65
2023/03/11 12:23:48;;;;;;;5.45;1.23;;;8.60;66.70;;;;;;5073194;28;20485;-71
2023/03/11 12:26:17;;;;;;;2.83;0.95;;;8.80;66.70;;;;;;5071497;28;20035;-65
2023/03/11 12:28:51;;;;;;;4.40;1.27;;;8.90;66.30;;;;;;5068131;28;20017;-66
2023/03/11 12:31:18;;;;;;;4.72;0.88;;;8.90;65.90;;;;;;5075364;28;20028;-70
2023/03/11 12:33:49;;;;;;;5.30;1.08;;;9.00;66.30;;;;;;5074839;28;20037;-69
2023/03/11 12:36:24;;;;;;;3.92;0.88;;;8.70;65.80;;;;;;5073104;28;20070;-69
2023/03/11 12:38:51;;;;;;;7.13;1.13;;;8.30;65.80;;;;;;5073195;28;20020;-71
2023/03/11 12:42:09;;;;;;;9.82;1.30;;;8.30;66.30;;;;;;5073597;28;20061;-70
2023/03/11 12:44:36;;;;;;;3.10;1.27;;;8.30;66.50;;;;;;5006195;28;20597;-69
2023/03/11 12:47:15;;;;;;;;;;;8.50;67.50;;;;;;5001133;28;20511;-71
2023/03/11 12:49:53;;;;;;;5.80;1.00;;;8.40;66.00;;;;;;4996633;28;20040;-70
2023/03/11 12:52:25;;;;;;;3.25;0.85;;;8.60;65.90;;;;;;4995986;28;20054;-71
2023/03/11 12:55:00;;;;;;;5.90;0.90;;;8.70;64.70;;;;;;4995995;28;20066;-70
2023/03/11 12:58:01;;;;;;;3.72;1.20;;;8.70;65.10;;;;;;5012503;28;20065;-71
2023/03/11 13:00:47;;;;;;;4.68;0.88;;;8.40;65.30;;;;;;4953352;28;20039;-71
2023/03/11 13:03:26;;;;;;;3.95;1.00;;;8.40;66.40;;;;;;4937786;29;20035;-70
2023/03/11 13:06:03;;;;;;;6.45;0.95;;;8.20;67.30;;;;;;4953162;29;20039;-71